createdAt,value
2022-09-11T00:03:24.892Z,16.33
2022-09-11T00:09:27.351Z,16.98
2022-09-11T00:15:29.727Z,17.05
2022-09-11T00:27:34.050Z,18.73
2022-09-11T00:33:37.443Z,18.00
2022-09-11T00:39:39.830Z,18.20
2022-09-11T00:45:42.205Z,18.05
2022-09-11T00:58:10.774Z,19.52
2022-09-11T01:04:14.079Z,18.45
2022-09-11T01:17:03.113Z,18.05
2022-09-11T01:23:39.092Z,20.08
2022-09-11T01:30:11.477Z,19.88
2022-09-11T01:36:24.618Z,20.13
2022-09-11T01:42:31.792Z,19.00
2022-09-11T01:48:44.680Z,19.65
2022-09-11T01:54:53.812Z,18.00
2022-09-11T02:01:05.022Z,19.33
2022-09-11T02:07:20.054Z,18.70
2022-09-11T02:13:31.279Z,19.05
2022-09-11T02:19:33.694Z,18.88
2022-09-11T02:25:35.901Z,16.75
2022-09-11T02:31:42.637Z,17.88
2022-09-11T02:38:11.812Z,17.20
2022-09-11T02:44:48.002Z,15.60
2022-09-11T02:51:02.129Z,14.43
2022-09-11T02:57:21.125Z,15.35
2022-09-11T03:03:23.290Z,13.35
2022-09-11T03:09:27.010Z,12.30
2022-09-11T03:15:34.839Z,12.30
2022-09-11T03:21:37.633Z,12.63
2022-09-11T03:27:40.182Z,13.20
2022-09-11T03:33:43.737Z,11.48
2022-09-11T03:39:46.542Z,10.77
2022-09-11T03:45:50.435Z,10.60
2022-09-11T03:51:53.030Z,11.10
2022-09-11T03:57:56.284Z,10.10
2022-09-11T04:04:00.943Z,10.70
2022-09-11T04:10:09.318Z,11.07
2022-09-11T04:16:15.192Z,8.73
2022-09-11T04:22:18.506Z,11.00
2022-09-11T04:28:22.818Z,10.55
2022-09-11T04:34:26.513Z,9.10
2022-09-11T04:40:30.202Z,9.25
2022-09-11T04:46:32.825Z,9.05
2022-09-11T04:52:36.009Z,9.18
2022-09-11T04:58:40.883Z,8.50
2022-09-11T05:04:43.162Z,8.00
2022-09-11T05:16:48.030Z,6.37
2022-09-11T05:22:54.016Z,6.82
2022-09-11T05:29:01.131Z,6.65
2022-09-11T05:35:05.173Z,8.05
2022-09-11T05:41:09.110Z,6.93
2022-09-11T05:47:14.585Z,6.68
2022-09-11T05:53:21.451Z,7.88
2022-09-11T05:59:24.108Z,7.43
2022-09-11T06:05:27.078Z,6.78
2022-09-11T06:11:31.374Z,6.20
2022-09-11T06:17:34.151Z,6.97
2022-09-11T06:23:37.549Z,6.28
2022-09-11T06:29:40.219Z,5.45
2022-09-11T06:35:42.402Z,5.50
2022-09-11T06:41:44.798Z,6.00
2022-09-11T06:47:49.639Z,6.05
2022-09-11T06:53:58.211Z,5.20
2022-09-11T07:00:06.282Z,5.15
2022-09-11T07:06:16.519Z,4.38
2022-09-11T07:12:27.556Z,3.63
2022-09-11T07:18:36.530Z,3.88
2022-09-11T07:24:42.702Z,4.22
2022-09-11T07:30:45.326Z,3.90
2022-09-11T07:36:51.993Z,4.50
2022-09-11T07:42:56.147Z,4.47
2022-09-11T07:48:59.202Z,4.28
2022-09-11T07:55:01.779Z,3.20
2022-09-11T08:01:08.448Z,3.90
2022-09-11T08:07:10.864Z,2.30
2022-09-11T08:13:13.013Z,3.30
2022-09-11T08:19:22.971Z,2.97
2022-09-11T08:25:29.874Z,2.30
2022-09-11T08:31:35.543Z,3.65
2022-09-11T08:37:38.017Z,3.50
2022-09-11T08:43:51.226Z,3.28
2022-09-11T08:50:06.125Z,2.97
2022-09-11T08:56:22.687Z,3.10
2022-09-11T09:02:49.846Z,2.97
2022-09-11T09:09:26.407Z,3.38
2022-09-11T09:15:59.181Z,3.03
2022-09-11T09:22:04.813Z,2.38
2022-09-11T09:28:29.826Z,3.22
2022-09-11T09:34:35.607Z,2.70
2022-09-11T09:40:42.799Z,2.70
2022-09-11T09:46:53.134Z,2.22
2022-09-11T09:53:20.665Z,2.10
2022-09-11T09:59:32.490Z,1.88
2022-09-11T10:05:42.024Z,1.90
2022-09-11T10:11:45.453Z,1.77
2022-09-11T10:17:47.994Z,1.52
2022-09-11T10:23:52.157Z,1.60
2022-09-11T10:29:54.781Z,2.42
2022-09-11T10:35:59.017Z,2.00
2022-09-11T10:42:13.069Z,2.50
2022-09-11T10:48:23.689Z,1.92
2022-09-11T10:54:38.736Z,2.15
2022-09-11T11:00:41.128Z,2.65
2022-09-11T11:06:58.621Z,2.05
2022-09-11T11:13:36.357Z,2.25
2022-09-11T11:19:55.878Z,1.83
2022-09-11T11:26:17.115Z,2.80
2022-09-11T11:32:49.439Z,1.85
2022-09-11T11:39:00.678Z,2.22
2022-09-11T11:45:06.288Z,1.52
2022-09-11T11:51:20.818Z,1.85
2022-09-11T12:04:04.010Z,2.55
2022-09-11T12:10:08.755Z,1.95
2022-09-11T12:16:28.219Z,1.60
2022-09-11T12:22:39.398Z,1.35
2022-09-11T12:28:42.577Z,1.00
2022-09-11T12:34:44.965Z,1.20
2022-09-11T12:41:30.531Z,4.53
2022-09-11T12:47:40.609Z,2.13
2022-09-11T12:53:47.136Z,1.15
2022-09-11T12:59:56.230Z,1.13
2022-09-11T13:06:08.095Z,1.30
2022-09-11T13:12:26.482Z,0.98
2022-09-11T13:18:34.656Z,1.10
2022-09-11T13:24:37.564Z,1.48
2022-09-11T13:30:53.083Z,1.70
2022-09-11T13:36:57.445Z,1.48
2022-09-11T13:43:01.304Z,2.40
2022-09-11T13:49:10.562Z,0.98
2022-09-11T13:55:27.292Z,4.57
2022-09-11T14:01:31.354Z,1.80
2022-09-11T14:07:41.319Z,2.60
2022-09-11T14:13:49.726Z,2.33
2022-09-11T14:20:00.369Z,1.05
2022-09-11T14:26:16.545Z,1.60
2022-09-11T14:32:37.161Z,1.20
2022-09-11T14:38:39.380Z,0.90
2022-09-11T14:44:42.477Z,2.60
2022-09-11T14:50:44.950Z,1.02
2022-09-11T14:56:48.287Z,1.10
2022-09-11T15:02:51.125Z,1.08
2022-09-11T15:08:53.202Z,1.30
2022-09-11T15:14:58.787Z,1.10
2022-09-11T15:21:02.125Z,1.90
2022-09-11T15:27:05.130Z,2.67
2022-09-11T15:33:07.422Z,1.08
2022-09-11T15:39:14.554Z,1.52
2022-09-11T15:45:17.573Z,4.60
2022-09-11T15:51:22.466Z,2.60
2022-09-11T15:57:25.808Z,1.65
2022-09-11T16:03:29.057Z,2.25
2022-09-11T16:09:32.710Z,1.52
2022-09-11T16:15:36.082Z,1.38
2022-09-11T16:21:38.439Z,1.13
2022-09-11T16:27:40.536Z,2.00
2022-09-11T16:39:50.140Z,1.55
2022-09-11T16:45:53.015Z,1.98
2022-09-11T16:51:55.335Z,1.38
2022-09-11T16:57:57.588Z,1.50
2022-09-11T17:10:03.185Z,1.80
2022-09-11T17:16:16.545Z,2.20
2022-09-11T17:22:19.251Z,2.15
2022-09-11T17:34:23.866Z,2.28
2022-09-11T17:40:26.420Z,2.05
2022-09-11T17:46:29.801Z,1.70
2022-09-11T17:52:33.454Z,1.73
2022-09-11T17:58:35.793Z,1.52
2022-09-11T18:10:49.288Z,1.55
2022-09-11T18:16:51.378Z,2.08
2022-09-11T18:22:53.987Z,1.73
2022-09-11T18:29:04.782Z,2.80
2022-09-11T18:35:07.542Z,2.20
2022-09-11T18:41:09.870Z,1.98
2022-09-11T18:53:15.118Z,1.95
2022-09-11T18:59:17.976Z,2.20
2022-09-11T19:05:20.254Z,1.75
2022-09-11T19:11:24.507Z,1.63
2022-09-11T19:17:29.859Z,1.95
2022-09-11T19:23:43.939Z,1.80
2022-09-11T19:29:47.937Z,2.03
2022-09-11T19:36:18.296Z,4.43
2022-09-11T19:42:24.795Z,2.67
2022-09-11T19:48:26.850Z,2.53
2022-09-11T19:54:30.918Z,5.53
2022-09-11T20:00:37.863Z,2.40
2022-09-11T20:06:40.270Z,1.95
2022-09-11T20:18:44.547Z,2.45
2022-09-11T20:30:48.953Z,2.00
2022-09-11T20:36:51.029Z,1.55
2022-09-11T20:42:53.217Z,2.05
2022-09-11T20:48:55.594Z,1.85
2022-09-11T21:01:00.986Z,2.03
2022-09-11T21:07:03.358Z,2.08
2022-09-11T21:13:05.772Z,2.13
2022-09-11T21:25:10.338Z,2.20
2022-09-11T21:31:12.538Z,2.00
2022-09-11T21:37:14.967Z,2.03
2022-09-11T21:43:17.592Z,2.53
2022-09-11T21:49:20.064Z,2.10
2022-09-11T22:01:25.509Z,2.95
2022-09-11T22:07:28.188Z,1.73
2022-09-11T22:13:31.149Z,2.30
2022-09-11T22:19:33.469Z,2.75
2022-09-11T22:25:37.084Z,3.15
2022-09-11T22:31:40.350Z,2.55
2022-09-11T22:37:42.717Z,2.65
2022-09-11T22:43:45.725Z,2.63
2022-09-11T22:49:48.018Z,2.45
2022-09-11T22:55:50.312Z,2.70
2022-09-11T23:01:52.557Z,2.83
2022-09-11T23:07:55.309Z,2.88
2022-09-11T23:13:57.705Z,2.28
2022-09-11T23:19:59.947Z,2.58
2022-09-11T23:26:04.252Z,2.55
2022-09-11T23:32:07.261Z,2.60
2022-09-11T23:38:09.752Z,2.90
2022-09-11T23:44:12.123Z,2.90
2022-09-11T23:50:14.342Z,3.05
2022-09-11T23:56:16.445Z,3.55
